Time;durP1;ratioP1;P1;durP2;ratioP2;P2;SDS_P1;SDS_P2;PMS_P1;PMS_P2;Temp;Humidity;BMP_temperature;BMP_pressure;BME280_temperature;BME280_humidity;BME280_pressure;Samples;Min_cycle;Max_cycle;Signal;HPM_P1;HPM_P2
2022/03/17 00:02:07;;;;;;;12.45;9.20;;;;;;;;;;5038344;28;20505;-74
2022/03/17 00:04:33;;;;;;;14.52;8.38;;;;;;;;;;5033640;28;20083;-74
2022/03/17 00:07:00;;;;;;;13.57;9.27;;;;;;;;;;5034895;28;20017;-72
2022/03/17 00:09:26;;;;;;;12.88;9.45;;;;;;;;;;5032738;28;20061;-74
2022/03/17 00:11:52;;;;;;;14.00;8.85;;;;;;;;;;5035354;28;20669;-74
2022/03/17 00:14:19;;;;;;;13.88;7.63;;;;;;;;;;5033888;28;20125;-75
2022/03/17 00:16:45;;;;;;;11.10;6.88;;;;;;;;;;5033772;28;20388;-73
2022/03/17 00:19:11;;;;;;;10.55;6.47;;;;;;;;;;5033913;28;20033;-74
2022/03/17 00:21:38;;;;;;;8.32;6.30;;;;;;;;;;5033270;28;20021;-75
2022/03/17 00:24:07;;;;;;;7.57;6.65;;;;;;;;;;5035558;28;20052;-73
2022/03/17 00:26:34;;;;;;;8.35;5.40;;;;;;;;;;5031587;28;20056;-74
2022/03/17 00:29:02;;;;;;;7.50;5.30;;;;;;;;;;5035121;28;20029;-74
2022/03/17 00:31:29;;;;;;;9.05;5.50;;;;;;;;;;5033195;28;20036;-74
2022/03/17 00:33:55;;;;;;;6.78;5.68;;;;;;;;;;5038784;28;20037;-74
2022/03/17 00:36:21;;;;;;;9.50;5.18;;;;;;;;;;5034153;28;20029;-74
2022/03/17 00:38:48;;;;;;;6.20;5.25;;;;;;;;;;5035324;28;20033;-74
2022/03/17 00:41:14;;;;;;;11.68;6.57;;;;;;;;;;5034524;28;20025;-74
2022/03/17 00:43:40;;;;;;;9.55;6.35;;;;;;;;;;5036463;28;20017;-74
2022/03/17 00:46:06;;;;;;;7.30;5.10;;;;;;;;;;5037439;28;20116;-74
2022/03/17 00:48:32;;;;;;;10.25;4.97;;;;;;;;;;5033670;28;20025;-74
2022/03/17 00:50:58;;;;;;;6.30;4.32;;;;;;;;;;5034099;28;20053;-75
2022/03/17 00:53:25;;;;;;;7.03;4.50;;;;;;;;;;5035608;28;20041;-74
2022/03/17 00:55:51;;;;;;;5.97;4.07;;;;;;;;;;5035656;28;20029;-74
2022/03/17 00:58:17;;;;;;;8.13;4.97;;;;;;;;;;5036602;28;20051;-74
2022/03/17 01:00:43;;;;;;;5.65;4.70;;;;;;;;;;5033573;28;20094;-75
2022/03/17 01:03:09;;;;;;;8.80;5.35;;;;;;;;;;5034902;28;20052;-74
2022/03/17 01:05:36;;;;;;;7.90;4.65;;;;;;;;;;5033904;28;20071;-75
2022/03/17 01:08:02;;;;;;;4.78;4.28;;;;;;;;;;5034684;28;20021;-73
2022/03/17 01:10:29;;;;;;;5.93;4.10;;;;;;;;;;5034000;28;20091;-74
2022/03/17 01:12:56;;;;;;;7.18;4.20;;;;;;;;;;5036409;28;20103;-73
2022/03/17 01:15:22;;;;;;;5.95;3.92;;;;;;;;;;5031966;28;20037;-73
2022/03/17 01:17:48;;;;;;;10.57;4.85;;;;;;;;;;5037147;28;20022;-74
2022/03/17 01:20:15;;;;;;;9.70;6.60;;;;;;;;;;5037534;28;20029;-74
2022/03/17 01:22:41;;;;;;;15.88;9.25;;;;;;;;;;5037848;28;20036;-73
2022/03/17 01:25:07;;;;;;;12.95;9.32;;;;;;;;;;5036425;28;20017;-74
2022/03/17 01:27:34;;;;;;;15.30;10.30;;;;;;;;;;5035186;28;20029;-73
2022/03/17 01:30:00;;;;;;;12.20;10.40;;;;;;;;;;5037268;28;20020;-72
2022/03/17 01:32:26;;;;;;;16.73;12.60;;;;;;;;;;5036133;28;20378;-73
2022/03/17 01:34:53;;;;;;;16.52;11.43;;;;;;;;;;5033974;28;20032;-74
2022/03/17 01:37:19;;;;;;;16.23;11.57;;;;;;;;;;5038040;28;20033;-74
2022/03/17 01:39:45;;;;;;;16.85;11.23;;;;;;;;;;5036338;28;20393;-74
2022/03/17 01:42:11;;;;;;;15.30;10.60;;;;;;;;;;5037295;28;20043;-74
2022/03/17 01:44:38;;;;;;;14.13;9.80;;;;;;;;;;5034022;28;20392;-74
2022/03/17 01:49:50;;;;;;;13.93;10.10;;;;;;;;;;5034648;28;20508;-74
2022/03/17 01:52:16;;;;;;;15.95;10.75;;;;;;;;;;5035008;28;20025;-74
2022/03/17 01:54:43;;;;;;;17.23;9.23;;;;;;;;;;5035113;28;20079;-73
2022/03/17 01:57:09;;;;;;;12.23;8.32;;;;;;;;;;5038158;28;20068;-72
2022/03/17 01:59:36;;;;;;;11.05;8.18;;;;;;;;;;5034278;28;20482;-72
2022/03/17 02:02:06;;;;;;;11.05;8.20;;;;;;;;;;5036963;28;20108;-73
2022/03/17 02:04:33;;;;;;;13.38;9.48;;;;;;;;;;5035454;28;20051;-72
2022/03/17 02:06:59;;;;;;;14.02;8.52;;;;;;;;;;5034541;28;20037;-72
2022/03/17 02:09:26;;;;;;;18.88;8.73;;;;;;;;;;5040331;28;20029;-73
2022/03/17 02:14:52;;;;;;;11.23;9.00;;;;;;;;;;5034923;28;20054;-73
2022/03/17 02:17:19;;;;;;;11.23;7.97;;;;;;;;;;5032485;28;20386;-73
2022/03/17 02:19:45;;;;;;;11.45;7.88;;;;;;;;;;5036488;28;20056;-72
2022/03/17 02:22:13;;;;;;;14.73;6.50;;;;;;;;;;5038819;28;20061;-73
2022/03/17 02:27:25;;;;;;;7.45;5.13;;;;;;;;;;5034921;28;20390;-73
2022/03/17 02:29:52;;;;;;;7.97;5.18;;;;;;;;;;5033827;28;20097;-73
2022/03/17 02:32:18;;;;;;;8.10;5.10;;;;;;;;;;5035819;28;20060;-72
2022/03/17 02:34:44;;;;;;;8.75;5.90;;;;;;;;;;5035061;28;20079;-72
2022/03/17 02:37:12;;;;;;;9.68;5.43;;;;;;;;;;5036981;28;20029;-72
2022/03/17 02:39:39;;;;;;;10.02;5.70;;;;;;;;;;5033225;28;20079;-73
2022/03/17 02:42:05;;;;;;;9.93;5.00;;;;;;;;;;5036098;28;20017;-73
2022/03/17 02:44:32;;;;;;;9.00;5.63;;;;;;;;;;5033257;28;20038;-73
2022/03/17 02:46:59;;;;;;;8.95;5.30;;;;;;;;;;5031559;28;20029;-73
2022/03/17 02:49:26;;;;;;;12.02;5.38;;;;;;;;;;5034011;28;20025;-72
2022/03/17 02:51:54;;;;;;;8.32;5.47;;;;;;;;;;5035148;28;20124;-73
2022/03/17 02:54:20;;;;;;;8.95;6.40;;;;;;;;;;5035862;28;20083;-73
2022/03/17 02:56:46;;;;;;;9.75;5.28;;;;;;;;;;5032606;28;20025;-72
2022/03/17 02:59:12;;;;;;;7.40;5.72;;;;;;;;;;5030814;28;20022;-74
2022/03/17 03:01:39;;;;;;;10.15;5.50;;;;;;;;;;5032681;28;20449;-72
2022/03/17 03:04:06;;;;;;;7.63;5.00;;;;;;;;;;5032329;28;20037;-73
2022/03/17 03:06:32;;;;;;;7.55;5.55;;;;;;;;;;5030824;28;20026;-74
2022/03/17 03:08:59;;;;;;;7.40;5.13;;;;;;;;;;5034080;28;20140;-73
2022/03/17 03:11:25;;;;;;;11.65;5.07;;;;;;;;;;5031457;28;20034;-72
2022/03/17 03:13:52;;;;;;;8.25;4.85;;;;;;;;;;5031292;28;20056;-72
2022/03/17 03:16:18;;;;;;;6.30;4.90;;;;;;;;;;5033439;28;20029;-74
2022/03/17 03:18:44;;;;;;;8.07;5.15;;;;;;;;;;5032963;28;20221;-73
2022/03/17 03:21:11;;;;;;;8.75;5.30;;;;;;;;;;5032559;28;20057;-72
2022/03/17 03:23:37;;;;;;;5.60;4.85;;;;;;;;;;5032961;28;20547;-73
2022/03/17 03:26:03;;;;;;;7.43;5.00;;;;;;;;;;5035246;28;20422;-74
2022/03/17 03:28:29;;;;;;;10.15;5.63;;;;;;;;;;5030249;28;20032;-74
2022/03/17 03:30:55;;;;;;;7.22;5.50;;;;;;;;;;5032661;28;20120;-72
2022/03/17 03:33:21;;;;;;;8.02;5.57;;;;;;;;;;5030976;28;20594;-72
2022/03/17 03:38:33;;;;;;;7.53;5.00;;;;;;;;;;5033051;28;20683;-72
2022/03/17 03:41:01;;;;;;;10.10;5.53;;;;;;;;;;5029710;28;20071;-73
2022/03/17 03:43:27;;;;;;;7.13;4.85;;;;;;;;;;5031270;28;20493;-72
2022/03/17 03:45:54;;;;;;;8.18;4.68;;;;;;;;;;5032064;28;20076;-74
2022/03/17 03:48:20;;;;;;;6.30;4.57;;;;;;;;;;5031579;28;20026;-72
2022/03/17 03:50:46;;;;;;;7.03;4.65;;;;;;;;;;5033710;28;20029;-73
2022/03/17 03:53:13;;;;;;;6.38;4.50;;;;;;;;;;5035565;28;20041;-73
2022/03/17 03:55:39;;;;;;;9.13;5.22;;;;;;;;;;5026750;28;20393;-73
2022/03/17 03:58:05;;;;;;;9.13;5.35;;;;;;;;;;5033000;28;20555;-73
2022/03/17 04:02:58;;;;;;;10.48;5.50;;;;;;;;;;5030842;28;20562;-73
2022/03/17 04:05:28;;;;;;;10.82;5.90;;;;;;;;;;5033195;28;20028;-72
2022/03/17 04:07:57;;;;;;;6.13;4.95;;;;;;;;;;5036496;28;20029;-73
2022/03/17 04:10:27;;;;;;;8.73;5.65;;;;;;;;;;5031987;28;20037;-73
2022/03/17 04:12:54;;;;;;;11.52;6.00;;;;;;;;;;5032804;28;20140;-72
2022/03/17 04:15:20;;;;;;;9.88;6.57;;;;;;;;;;5034308;28;20024;-73
2022/03/17 04:17:49;;;;;;;9.60;6.03;;;;;;;;;;5033833;28;20029;-72
2022/03/17 04:20:15;;;;;;;8.32;5.85;;;;;;;;;;5031685;28;20035;-73
2022/03/17 04:22:41;;;;;;;9.07;5.32;;;;;;;;;;5034771;28;20040;-72
2022/03/17 04:25:08;;;;;;;8.93;4.75;;;;;;;;;;5029440;28;20034;-73
2022/03/17 04:27:34;;;;;;;8.85;5.03;;;;;;;;;;5034014;28;20040;-73
2022/03/17 04:30:00;;;;;;;8.30;5.07;;;;;;;;;;5032504;28;20439;-72
2022/03/17 04:32:26;;;;;;;6.50;4.55;;;;;;;;;;5031963;28;20029;-73
2022/03/17 04:34:52;;;;;;;6.07;4.50;;;;;;;;;;5034531;28;20037;-73
2022/03/17 04:37:18;;;;;;;6.50;4.68;;;;;;;;;;5029948;28;20037;-72
2022/03/17 04:39:44;;;;;;;9.60;4.80;;;;;;;;;;5034996;28;20037;-72
2022/03/17 04:42:11;;;;;;;8.05;4.18;;;;;;;;;;5031847;28;20406;-73
2022/03/17 04:44:37;;;;;;;8.35;4.10;;;;;;;;;;5034164;28;20021;-73
2022/03/17 04:47:03;;;;;;;4.65;3.53;;;;;;;;;;5030099;28;20033;-74
2022/03/17 04:49:29;;;;;;;5.90;4.05;;;;;;;;;;5034542;28;20036;-73
2022/03/17 04:51:56;;;;;;;8.10;4.10;;;;;;;;;;5031818;28;20701;-73
2022/03/17 04:54:22;;;;;;;7.32;3.63;;;;;;;;;;5033960;28;20079;-72
2022/03/17 04:56:48;;;;;;;8.82;4.10;;;;;;;;;;5032769;28;20410;-73
2022/03/17 04:59:14;;;;;;;7.07;3.67;;;;;;;;;;5031354;28;20052;-73
2022/03/17 05:01:40;;;;;;;8.63;3.78;;;;;;;;;;5031691;28;20029;-73
2022/03/17 05:04:07;;;;;;;8.32;3.78;;;;;;;;;;5033049;28;20516;-73
2022/03/17 05:06:33;;;;;;;9.90;3.90;;;;;;;;;;5033277;28;20657;-73
2022/03/17 05:08:59;;;;;;;13.38;6.47;;;;;;;;;;5034239;28;20470;-72
2022/03/17 05:11:25;;;;;;;13.20;6.13;;;;;;;;;;5030687;28;20040;-72
2022/03/17 05:13:52;;;;;;;9.55;5.65;;;;;;;;;;5032583;28;20056;-73
2022/03/17 05:16:18;;;;;;;9.13;6.10;;;;;;;;;;5034137;28;20025;-72
2022/03/17 05:18:44;;;;;;;9.27;5.93;;;;;;;;;;5030271;28;20717;-73
2022/03/17 05:21:11;;;;;;;10.63;5.78;;;;;;;;;;5032137;28;20056;-72
2022/03/17 05:23:38;;;;;;;9.63;5.80;;;;;;;;;;5034295;28;20082;-73
2022/03/17 05:26:04;;;;;;;8.15;4.97;;;;;;;;;;5028496;28;20202;-73
2022/03/17 05:28:30;;;;;;;8.95;4.93;;;;;;;;;;5030812;28;20024;-73
2022/03/17 05:30:57;;;;;;;10.07;5.90;;;;;;;;;;5031333;28;20036;-72
2022/03/17 05:33:23;;;;;;;9.05;5.28;;;;;;;;;;5033061;28;20043;-73
2022/03/17 05:35:49;;;;;;;11.85;5.47;;;;;;;;;;5033249;28;20033;-73
2022/03/17 05:38:15;;;;;;;8.50;5.28;;;;;;;;;;5029487;28;20042;-74
2022/03/17 05:40:42;;;;;;;6.93;4.68;;;;;;;;;;5031351;28;20578;-73
2022/03/17 05:43:09;;;;;;;8.38;5.40;;;;;;;;;;5032156;28;20025;-74
2022/03/17 05:45:36;;;;;;;6.50;5.07;;;;;;;;;;5028324;28;20044;-73
2022/03/17 05:48:04;;;;;;;9.45;4.97;;;;;;;;;;5036533;28;20040;-75
2022/03/17 05:50:31;;;;;;;5.47;4.80;;;;;;;;;;5028688;28;20124;-73
2022/03/17 05:52:57;;;;;;;8.75;4.95;;;;;;;;;;5031225;28;20049;-73
2022/03/17 05:55:24;;;;;;;7.30;5.03;;;;;;;;;;5026835;28;20033;-73
2022/03/17 05:57:52;;;;;;;9.70;4.40;;;;;;;;;;5030449;28;20553;-73
2022/03/17 06:00:19;;;;;;;4.85;3.80;;;;;;;;;;5030483;28;20025;-73
2022/03/17 06:02:46;;;;;;;5.80;4.10;;;;;;;;;;5028487;28;20034;-73
2022/03/17 06:05:12;;;;;;;8.60;3.70;;;;;;;;;;5029076;28;20764;-74
2022/03/17 06:07:43;;;;;;;5.93;4.00;;;;;;;;;;5030548;28;20029;-74
2022/03/17 06:10:11;;;;;;;5.13;4.07;;;;;;;;;;5030396;28;20044;-73
2022/03/17 06:12:37;;;;;;;6.13;4.00;;;;;;;;;;5026330;28;20049;-73
2022/03/17 06:15:04;;;;;;;6.82;4.15;;;;;;;;;;5029540;28;20640;-73
2022/03/17 06:17:50;;;;;;;12.38;5.30;;;;;;;;;;5037662;28;20562;-73
2022/03/17 06:20:18;;;;;;;7.22;4.82;;;;;;;;;;5029267;28;20048;-73
2022/03/17 06:22:45;;;;;;;6.55;4.88;;;;;;;;;;5031353;28;20052;-73
2022/03/17 06:25:14;;;;;;;7.90;4.60;;;;;;;;;;5026621;28;20110;-74
2022/03/17 06:27:42;;;;;;;7.22;4.68;;;;;;;;;;5030290;28;20029;-74
2022/03/17 06:30:09;;;;;;;8.50;5.05;;;;;;;;;;5032227;28;20260;-73
2022/03/17 06:32:38;;;;;;;6.50;4.95;;;;;;;;;;5029041;28;20851;-74
2022/03/17 06:35:04;;;;;;;6.90;4.95;;;;;;;;;;5031434;28;20060;-72
2022/03/17 06:37:30;;;;;;;6.60;4.80;;;;;;;;;;5034992;28;20107;-74
2022/03/17 06:39:57;;;;;;;9.55;5.18;;;;;;;;;;5037200;28;20029;-72
2022/03/17 06:42:23;;;;;;;10.02;4.75;;;;;;;;;;5039104;28;20026;-73
2022/03/17 06:44:49;;;;;;;12.43;5.57;;;;;;;;;;5036331;28;20028;-73
2022/03/17 06:47:15;;;;;;;8.55;5.30;;;;;;;;;;5032424;28;20187;-74
2022/03/17 06:49:41;;;;;;;6.72;4.85;;;;;;;;;;5034429;28;20052;-73
2022/03/17 06:52:08;;;;;;;7.50;5.47;;;;;;;;;;5034033;28;20404;-72
2022/03/17 06:54:34;;;;;;;7.93;4.95;;;;;;;;;;5034715;28;20457;-75
2022/03/17 06:57:00;;;;;;;9.30;5.25;;;;;;;;;;5031177;28;20877;-73
2022/03/17 06:59:26;;;;;;;9.82;5.05;;;;;;;;;;5031018;28;20033;-74
2022/03/17 07:01:55;;;;;;;8.57;5.00;;;;;;;;;;5031701;28;20033;-74
2022/03/17 07:04:21;;;;;;;9.32;5.28;;;;;;;;;;5039620;28;20028;-74
2022/03/17 07:06:48;;;;;;;7.78;5.65;;;;;;;;;;5031115;28;20086;-74
2022/03/17 07:09:14;;;;;;;10.07;6.03;;;;;;;;;;5033348;28;20100;-74
2022/03/17 07:11:40;;;;;;;11.57;7.78;;;;;;;;;;5029234;28;20061;-74
2022/03/17 07:14:06;;;;;;;12.85;7.63;;;;;;;;;;5033797;28;20699;-74
2022/03/17 07:16:32;;;;;;;11.15;7.00;;;;;;;;;;5033732;28;20422;-74
2022/03/17 07:18:59;;;;;;;9.27;6.88;;;;;;;;;;5034541;28;20104;-74
2022/03/17 07:21:25;;;;;;;11.73;6.53;;;;;;;;;;5030098;28;20029;-74
2022/03/17 07:23:51;;;;;;;16.00;6.78;;;;;;;;;;5032970;28;20026;-74
2022/03/17 07:26:19;;;;;;;7.90;6.15;;;;;;;;;;5033461;28;20025;-73
2022/03/17 07:28:46;;;;;;;7.80;5.70;;;;;;;;;;5033438;28;20199;-73
2022/03/17 07:31:12;;;;;;;10.90;5.85;;;;;;;;;;5033730;28;20039;-74
2022/03/17 07:33:38;;;;;;;12.95;6.20;;;;;;;;;;5031435;28;20033;-74
2022/03/17 07:36:05;;;;;;;8.20;5.35;;;;;;;;;;5029793;28;20061;-73
2022/03/17 07:38:31;;;;;;;9.82;5.70;;;;;;;;;;5029550;28;20030;-75
2022/03/17 07:40:57;;;;;;;6.05;5.03;;;;;;;;;;5030513;28;20057;-74
2022/03/17 07:43:25;;;;;;;7.88;5.57;;;;;;;;;;5033614;28;20057;-74
2022/03/17 07:45:53;;;;;;;6.80;5.25;;;;;;;;;;5036162;28;20108;-74
2022/03/17 07:48:20;;;;;;;9.23;5.55;;;;;;;;;;5025059;28;20033;-73
2022/03/17 07:50:46;;;;;;;10.32;6.03;;;;;;;;;;5033572;28;20021;-74
2022/03/17 07:53:12;;;;;;;6.10;4.72;;;;;;;;;;5031415;28;20037;-74
2022/03/17 07:55:38;;;;;;;9.00;4.68;;;;;;;;;;5032539;28;20021;-73
2022/03/17 07:58:05;;;;;;;8.45;4.97;;;;;;;;;;5029216;28;20033;-74
2022/03/17 08:00:31;;;;;;;5.70;4.10;;;;;;;;;;5032349;28;20017;-74
2022/03/17 08:02:59;;;;;;;8.25;5.13;;;;;;;;;;5031966;28;20021;-73
2022/03/17 08:05:25;;;;;;;6.10;5.05;;;;;;;;;;5030751;28;20471;-74
2022/03/17 08:07:52;;;;;;;8.07;5.00;;;;;;;;;;5032721;28;20037;-74
2022/03/17 08:10:19;;;;;;;7.72;4.72;;;;;;;;;;5035483;28;20022;-74
2022/03/17 08:12:46;;;;;;;7.70;5.30;;;;;;;;;;5029363;28;20103;-73
2022/03/17 08:15:13;;;;;;;6.22;4.22;;;;;;;;;;5031721;28;20036;-74
2022/03/17 08:17:40;;;;;;;9.15;4.60;;;;;;;;;;5028759;28;20097;-74
2022/03/17 08:20:06;;;;;;;11.20;5.50;;;;;;;;;;5030161;28;20534;-73
2022/03/17 08:22:34;;;;;;;5.75;4.82;;;;;;;;;;5030183;28;20470;-73
2022/03/17 08:25:00;;;;;;;7.68;4.25;;;;;;;;;;5028605;28;20040;-74
2022/03/17 08:27:26;;;;;;;5.80;4.03;;;;;;;;;;5032870;28;20025;-74
2022/03/17 08:29:52;;;;;;;7.68;4.22;;;;;;;;;;5030757;28;20038;-74
2022/03/17 08:32:18;;;;;;;5.50;3.83;;;;;;;;;;5030573;28;20041;-74
2022/03/17 08:34:45;;;;;;;8.25;4.07;;;;;;;;;;5029978;28;20078;-74
2022/03/17 08:37:11;;;;;;;7.30;4.57;;;;;;;;;;5027765;28;20629;-74
2022/03/17 08:39:37;;;;;;;6.35;4.25;;;;;;;;;;5031329;28;20469;-74
2022/03/17 08:42:03;;;;;;;6.20;4.40;;;;;;;;;;5031206;28;20025;-74
2022/03/17 08:44:29;;;;;;;7.85;4.65;;;;;;;;;;5028716;28;20021;-73
2022/03/17 08:49:40;;;;;;;17.42;5.82;;;;;;;;;;5031290;28;20036;-74
2022/03/17 08:52:07;;;;;;;11.35;5.15;;;;;;;;;;5035588;28;20029;-74
2022/03/17 08:54:35;;;;;;;9.23;5.43;;;;;;;;;;5033042;28;20115;-73
2022/03/17 08:57:03;;;;;;;7.85;5.57;;;;;;;;;;5031475;28;20052;-74
2022/03/17 08:59:34;;;;;;;9.57;6.20;;;;;;;;;;5034630;28;20179;-74
2022/03/17 09:02:01;;;;;;;7.15;5.65;;;;;;;;;;5037763;28;20027;-74
2022/03/17 09:04:28;;;;;;;12.43;7.15;;;;;;;;;;5038726;28;20024;-73
2022/03/17 09:06:58;;;;;;;13.68;7.13;;;;;;;;;;5041170;28;20047;-74
2022/03/17 09:09:25;;;;;;;14.07;9.88;;;;;;;;;;5042931;28;20021;-73
2022/03/17 09:11:51;;;;;;;14.32;8.57;;;;;;;;;;5036513;28;20025;-74
2022/03/17 09:14:17;;;;;;;13.90;7.53;;;;;;;;;;5031964;28;20039;-73
2022/03/17 09:16:44;;;;;;;10.88;7.57;;;;;;;;;;5032954;28;20021;-74
2022/03/17 09:19:10;;;;;;;11.85;7.72;;;;;;;;;;5032909;28;20669;-73
2022/03/17 09:21:36;;;;;;;11.98;7.82;;;;;;;;;;5039428;28;20505;-75
2022/03/17 09:24:03;;;;;;;7.93;6.43;;;;;;;;;;5035099;28;20029;-75
2022/03/17 09:26:30;;;;;;;11.95;6.70;;;;;;;;;;5034653;28;20017;-74
2022/03/17 09:28:56;;;;;;;10.88;6.38;;;;;;;;;;5033055;28;20035;-74
2022/03/17 09:31:23;;;;;;;9.60;5.93;;;;;;;;;;5033843;28;20612;-73
2022/03/17 09:33:49;;;;;;;10.77;6.30;;;;;;;;;;5034968;28;20048;-73
2022/03/17 09:36:16;;;;;;;8.95;5.97;;;;;;;;;;5034983;28;20388;-74
2022/03/17 09:38:43;;;;;;;9.95;6.35;;;;;;;;;;5031806;28;20028;-74
2022/03/17 09:41:25;;;;;;;10.13;6.57;;;;;;;;;;5036994;28;20025;-74
2022/03/17 09:43:51;;;;;;;;;;;;;;;;;;5031527;28;20030;-73
2022/03/17 09:46:17;;;;;;;7.78;6.50;;;;;;;;;;5039025;28;19998;-74
2022/03/17 09:48:44;;;;;;;8.10;6.20;;;;;;;;;;5037471;28;20424;-74
2022/03/17 09:51:11;;;;;;;8.90;6.10;;;;;;;;;;5037749;28;20503;-74
2022/03/17 09:53:37;;;;;;;11.50;6.80;;;;;;;;;;5034825;28;20081;-73
2022/03/17 09:56:03;;;;;;;8.52;5.93;;;;;;;;;;5034914;28;20029;-74
2022/03/17 09:58:30;;;;;;;14.68;7.35;;;;;;;;;;5032610;28;20025;-73
2022/03/17 10:00:59;;;;;;;9.02;6.30;;;;;;;;;;5033857;28;20037;-74
2022/03/17 10:03:27;;;;;;;10.00;6.90;;;;;;;;;;5034880;28;20032;-74
2022/03/17 10:05:54;;;;;;;9.68;7.07;;;;;;;;;;5036932;28;20124;-74
2022/03/17 10:08:21;;;;;;;9.20;6.78;;;;;;;;;;5032200;28;20377;-74
2022/03/17 10:10:48;;;;;;;10.75;7.10;;;;;;;;;;5040537;28;20043;-73
2022/03/17 10:13:16;;;;;;;12.10;6.57;;;;;;;;;;5034712;28;20071;-73
2022/03/17 10:15:44;;;;;;;13.45;7.57;;;;;;;;;;5038624;28;20020;-73
2022/03/17 10:18:17;;;;;;;10.90;6.78;;;;;;;;;;5031955;28;20391;-74
2022/03/17 10:20:44;;;;;;;7.88;6.13;;;;;;;;;;5030932;28;20228;-73
2022/03/17 10:23:11;;;;;;;8.45;6.72;;;;;;;;;;5029661;28;20017;-74
2022/03/17 10:25:37;;;;;;;7.43;5.45;;;;;;;;;;5032832;28;20117;-73
2022/03/17 10:28:04;;;;;;;12.68;6.93;;;;;;;;;;5032506;28;20497;-73
2022/03/17 10:30:34;;;;;;;13.63;7.63;;;;;;;;;;5029067;28;20030;-74
2022/03/17 10:33:03;;;;;;;14.88;5.88;;;;;;;;;;5033077;28;20031;-73
2022/03/17 10:35:36;;;;;;;9.40;6.07;;;;;;;;;;5031203;28;20028;-73
2022/03/17 10:38:18;;;;;;;8.23;6.05;;;;;;;;;;5030444;28;20018;-75
2022/03/17 10:40:44;;;;;;;;;;;;;;;;;;5030294;28;20033;-74
2022/03/17 10:43:17;;;;;;;9.32;6.85;;;;;;;;;;5032076;28;19905;-74
2022/03/17 10:45:44;;;;;;;13.43;6.13;;;;;;;;;;5032962;28;20080;-74
2022/03/17 10:48:10;;;;;;;9.85;6.55;;;;;;;;;;5030575;28;20029;-74
2022/03/17 10:50:40;;;;;;;16.10;7.18;;;;;;;;;;5031503;28;20029;-74
2022/03/17 10:53:07;;;;;;;9.23;6.32;;;;;;;;;;5031879;28;20373;-73
2022/03/17 10:55:34;;;;;;;6.07;5.40;;;;;;;;;;5030676;28;20108;-73
2022/03/17 10:58:13;;;;;;;11.38;6.78;;;;;;;;;;5031676;28;20017;-73
2022/03/17 11:00:48;;;;;;;10.52;5.90;;;;;;;;;;5032658;28;20090;-74
2022/03/17 11:03:14;;;;;;;7.28;5.53;;;;;;;;;;5027118;28;20480;-74
2022/03/17 11:05:41;;;;;;;9.90;5.82;;;;;;;;;;5033512;28;20055;-73
2022/03/17 11:08:10;;;;;;;8.60;5.57;;;;;;;;;;5032540;28;20031;-73
2022/03/17 11:10:39;;;;;;;9.82;6.10;;;;;;;;;;5034966;28;20029;-75
2022/03/17 11:13:09;;;;;;;6.47;5.13;;;;;;;;;;5029695;28;20053;-74
2022/03/17 11:15:40;;;;;;;8.32;5.10;;;;;;;;;;5036707;28;20039;-76
2022/03/17 11:18:16;;;;;;;8.57;5.65;;;;;;;;;;5031114;28;20458;-74
2022/03/17 11:20:43;;;;;;;6.53;4.72;;;;;;;;;;5032231;28;20121;-73
2022/03/17 11:23:22;;;;;;;8.35;4.70;;;;;;;;;;5035809;28;20086;-75
2022/03/17 11:25:51;;;;;;;7.43;4.60;;;;;;;;;;5029366;28;20022;-73
2022/03/17 11:28:17;;;;;;;7.05;4.72;;;;;;;;;;5030950;28;20025;-73
2022/03/17 11:30:44;;;;;;;5.80;4.40;;;;;;;;;;5031206;28;20029;-73
2022/03/17 11:33:31;;;;;;;6.55;5.25;;;;;;;;;;5030791;28;20037;-74
2022/03/17 11:35:59;;;;;;;9.43;5.97;;;;;;;;;;5033101;28;20040;-74
2022/03/17 11:38:30;;;;;;;8.18;5.53;;;;;;;;;;5032356;28;20072;-74
2022/03/17 11:41:10;;;;;;;9.10;5.60;;;;;;;;;;5033224;28;20653;-74
2022/03/17 11:43:42;;;;;;;11.13;5.43;;;;;;;;;;5029900;28;20417;-73
2022/03/17 11:46:19;;;;;;;9.32;5.57;;;;;;;;;;5035059;28;20033;-74
2022/03/17 11:48:46;;;;;;;7.88;5.38;;;;;;;;;;5031307;28;20330;-73
2022/03/17 11:51:14;;;;;;;8.98;5.65;;;;;;;;;;5033282;28;20462;-74
2022/03/17 11:53:47;;;;;;;8.13;5.60;;;;;;;;;;5026780;28;20075;-75
2022/03/17 11:56:32;;;;;;;9.27;6.13;;;;;;;;;;5026739;28;20025;-74
2022/03/17 11:58:58;;;;;;;7.18;5.38;;;;;;;;;;5033154;28;20036;-73
2022/03/17 12:01:27;;;;;;;8.57;5.72;;;;;;;;;;5032499;28;20476;-74
2022/03/17 12:03:59;;;;;;;8.25;5.50;;;;;;;;;;5033940;28;20040;-74
2022/03/17 12:06:26;;;;;;;10.50;6.07;;;;;;;;;;5035803;28;20044;-74
2022/03/17 12:09:01;;;;;;;11.45;6.35;;;;;;;;;;5038176;28;20390;-74
2022/03/17 12:11:31;;;;;;;8.43;5.72;;;;;;;;;;5031005;28;20074;-73
2022/03/17 12:14:09;;;;;;;7.03;4.97;;;;;;;;;;5031133;28;20085;-73
2022/03/17 12:16:40;;;;;;;9.07;5.57;;;;;;;;;;5035622;28;20115;-74
2022/03/17 12:19:06;;;;;;;7.10;5.07;;;;;;;;;;5030976;28;20028;-73
2022/03/17 12:21:51;;;;;;;7.75;5.05;;;;;;;;;;5032160;28;20470;-74
2022/03/17 12:24:33;;;;;;;7.50;5.80;;;;;;;;;;5031856;28;20029;-74
2022/03/17 12:27:06;;;;;;;9.88;5.47;;;;;;;;;;5034482;28;20033;-73
2022/03/17 12:29:33;;;;;;;8.70;6.28;;;;;;;;;;5035955;28;20037;-73
2022/03/17 12:32:10;;;;;;;9.15;5.93;;;;;;;;;;5036923;28;20100;-73
2022/03/17 12:34:37;;;;;;;7.75;6.22;;;;;;;;;;5045584;28;20033;-73
2022/03/17 12:37:04;;;;;;;6.78;6.07;;;;;;;;;;5037330;28;20485;-73
2022/03/17 12:39:30;;;;;;;7.80;6.10;;;;;;;;;;5035726;28;20059;-73
2022/03/17 12:42:01;;;;;;;11.48;6.93;;;;;;;;;;5036202;28;20017;-74
2022/03/17 12:44:28;;;;;;;7.45;6.65;;;;;;;;;;5039100;28;20641;-74
2022/03/17 12:46:55;;;;;;;13.77;7.45;;;;;;;;;;5039322;28;20037;-74
2022/03/17 12:49:22;;;;;;;9.38;7.32;;;;;;;;;;5036640;28;20060;-74
2022/03/17 12:51:49;;;;;;;10.05;6.78;;;;;;;;;;5035781;28;20389;-74
2022/03/17 12:54:16;;;;;;;9.90;6.88;;;;;;;;;;5035547;28;20106;-75
2022/03/17 12:56:49;;;;;;;8.48;7.00;;;;;;;;;;5041308;28;20078;-74
2022/03/17 12:59:15;;;;;;;11.15;7.45;;;;;;;;;;5032946;28;20083;-74
2022/03/17 13:01:42;;;;;;;10.00;6.63;;;;;;;;;;5036950;28;20116;-74
2022/03/17 13:04:08;;;;;;;12.70;8.05;;;;;;;;;;5040298;28;20071;-74
2022/03/17 13:06:55;;;;;;;9.65;7.07;;;;;;;;;;5033035;28;20511;-74
2022/03/17 13:09:31;;;;;;;9.07;6.40;;;;;;;;;;5034900;28;20064;-77
2022/03/17 13:14:46;;;;;;;10.02;6.85;;;;;;;;;;5033041;28;20098;-74
2022/03/17 13:17:13;;;;;;;15.32;7.32;;;;;;;;;;5034487;28;20030;-75
2022/03/17 13:19:46;;;;;;;6.97;6.18;;;;;;;;;;5042670;28;20643;-75
2022/03/17 13:22:12;;;;;;;10.02;7.53;;;;;;;;;;5032360;28;20359;-74
2022/03/17 13:24:38;;;;;;;12.45;7.38;;;;;;;;;;5033904;28;20492;-74
2022/03/17 13:27:04;;;;;;;13.50;7.38;;;;;;;;;;5034940;28;20029;-74
2022/03/17 13:29:35;;;;;;;10.98;6.70;;;;;;;;;;5035866;28;20036;-73
2022/03/17 13:32:02;;;;;;;10.30;7.35;;;;;;;;;;5034286;28;20029;-74
2022/03/17 13:34:29;;;;;;;10.23;7.00;;;;;;;;;;5033373;28;20033;-75
2022/03/17 13:37:00;;;;;;;9.18;8.07;;;;;;;;;;5033292;28;20036;-73
2022/03/17 13:39:29;;;;;;;9.80;7.43;;;;;;;;;;5036583;28;20105;-78
2022/03/17 13:42:05;;;;;;;11.15;7.50;;;;;;;;;;5032474;28;20084;-74
2022/03/17 13:44:49;;;;;;;20.73;8.73;;;;;;;;;;5032406;28;20164;-74
2022/03/17 13:47:18;;;;;;;9.60;6.93;;;;;;;;;;5030113;28;20126;-75
2022/03/17 13:50:04;;;;;;;9.20;7.32;;;;;;;;;;5033298;28;20112;-74
2022/03/17 13:52:30;;;;;;;9.50;7.03;;;;;;;;;;5028152;28;20042;-74
2022/03/17 13:54:56;;;;;;;9.27;6.60;;;;;;;;;;5032399;28;20048;-73
2022/03/17 13:57:22;;;;;;;9.82;6.68;;;;;;;;;;5034147;28;20021;-74
2022/03/17 13:59:49;;;;;;;11.77;6.57;;;;;;;;;;5031456;28;20843;-73
2022/03/17 14:02:17;;;;;;;11.80;6.45;;;;;;;;;;5031815;28;20032;-74
2022/03/17 14:04:55;;;;;;;11.80;6.80;;;;;;;;;;5033952;28;20018;-73
2022/03/17 14:07:21;;;;;;;24.67;15.00;;;;;;;;;;5035790;28;20072;-73
2022/03/17 14:09:48;;;;;;;10.93;7.07;;;;;;;;;;5030739;28;20040;-73
2022/03/17 14:12:14;;;;;;;7.75;6.38;;;;;;;;;;5034113;28;20053;-74
2022/03/17 14:14:40;;;;;;;8.60;6.50;;;;;;;;;;5028667;28;20036;-74
2022/03/17 14:17:10;;;;;;;10.80;6.50;;;;;;;;;;5032326;28;20076;-73
2022/03/17 14:19:36;;;;;;;9.73;6.40;;;;;;;;;;5031838;28;20051;-74
2022/03/17 14:24:47;;;;;;;10.23;6.63;;;;;;;;;;5029913;28;20063;-74
2022/03/17 14:27:13;;;;;;;10.30;7.13;;;;;;;;;;5028176;28;20025;-77
2022/03/17 14:29:39;;;;;;;10.90;6.63;;;;;;;;;;5028497;28;20033;-77
2022/03/17 14:32:05;;;;;;;10.65;6.78;;;;;;;;;;5030392;28;20036;-75
2022/03/17 14:34:32;;;;;;;11.25;6.93;;;;;;;;;;5031971;28;20037;-73
2022/03/17 14:36:58;;;;;;;7.68;6.55;;;;;;;;;;5032136;28;20508;-75
2022/03/17 14:39:24;;;;;;;9.38;7.05;;;;;;;;;;5031427;28;20033;-74
2022/03/17 14:41:52;;;;;;;12.48;6.53;;;;;;;;;;5030908;28;20040;-75
2022/03/17 14:44:18;;;;;;;12.02;6.78;;;;;;;;;;5032749;28;20030;-75
2022/03/17 14:46:45;;;;;;;8.95;7.22;;;;;;;;;;5031151;28;20273;-74
2022/03/17 14:49:12;;;;;;;13.45;8.32;;;;;;;;;;5032468;28;20602;-75
2022/03/17 14:51:39;;;;;;;9.13;8.15;;;;;;;;;;5027904;28;20045;-74
2022/03/17 14:54:06;;;;;;;11.32;8.40;;;;;;;;;;5030680;28;20525;-76
2022/03/17 14:56:32;;;;;;;12.82;8.88;;;;;;;;;;5032288;28;20025;-75
2022/03/17 14:58:58;;;;;;;12.00;8.00;;;;;;;;;;5036070;28;20029;-78
2022/03/17 15:01:25;;;;;;;13.77;8.50;;;;;;;;;;5034309;28;20035;-76
2022/03/17 15:03:51;;;;;;;10.57;7.70;;;;;;;;;;5026506;28;20385;-75